Time;durP1;ratioP1;P1;durP2;ratioP2;P2;SDS_P1;SDS_P2;PMS_P1;PMS_P2;Temp;Humidity;BMP_temperature;BMP_pressure;BME280_temperature;BME280_humidity;BME280_pressure;Samples;Min_cycle;Max_cycle;Signal;HPM_P1;HPM_P2
2023/06/10 04:05:56;;;;;;;4.13;3.40;;;16.10;99.90;;;;;;5703497;23;20516;-63
2023/06/10 04:08:23;;;;;;;4.43;3.80;;;16.10;99.90;;;;;;4993763;28;20420;-63
2023/06/10 04:10:48;;;;;;;5.23;3.60;;;16.10;99.90;;;;;;4994257;28;20862;-62
2023/06/10 04:13:14;;;;;;;3.30;3.00;;;16.20;99.90;;;;;;4993686;28;20430;-63
2023/06/10 04:15:40;;;;;;;3.70;3.40;;;16.30;99.90;;;;;;4994028;28;20199;-62
2023/06/10 04:18:06;;;;;;;4.73;4.33;;;16.50;99.90;;;;;;4993961;28;20421;-62
2023/06/10 04:20:32;;;;;;;3.53;3.23;;;16.70;99.90;;;;;;4993911;28;20287;-62
2023/06/10 04:22:59;;;;;;;4.10;3.80;;;16.90;99.90;;;;;;4993852;28;20500;-62
2023/06/10 04:25:26;;;;;;;4.33;3.93;;;17.20;99.90;;;;;;4993706;28;20198;-62
2023/06/10 04:27:51;;;;;;;5.20;3.80;;;17.40;99.90;;;;;;4994028;28;20412;-63
2023/06/10 04:30:18;;;;;;;4.60;3.67;;;17.70;99.90;;;;;;4993931;28;20411;-62
2023/06/10 04:32:43;;;;;;;3.70;3.30;;;17.90;99.90;;;;;;4993872;28;20669;-62
2023/06/10 04:35:12;;;;;;;4.03;3.73;;;18.10;99.90;;;;;;4993614;28;20449;-63
2023/06/10 04:37:38;;;;;;;3.83;3.53;;;18.50;99.90;;;;;;4997865;28;20189;-63
2023/06/10 04:40:05;;;;;;;3.73;3.40;;;18.70;99.90;;;;;;4996346;28;20497;-63
2023/06/10 04:42:31;;;;;;;3.40;3.20;;;18.90;99.90;;;;;;4997527;28;20179;-63
2023/06/10 04:44:57;;;;;;;3.97;3.60;;;19.20;99.90;;;;;;4997431;28;20522;-63
2023/06/10 04:47:23;;;;;;;3.43;3.00;;;19.40;99.90;;;;;;4997666;28;20178;-63
2023/06/10 04:49:48;;;;;;;3.00;2.80;;;19.50;99.90;;;;;;4997621;28;20434;-63
2023/06/10 04:52:14;;;;;;;2.83;2.63;;;19.50;99.90;;;;;;4997405;28;20225;-62
2023/06/10 04:54:40;;;;;;;3.63;3.30;;;19.50;99.90;;;;;;4997282;28;20188;-63
2023/06/10 04:57:07;;;;;;;2.87;2.63;;;19.60;99.90;;;;;;4997433;28;20186;-62
2023/06/10 04:59:33;;;;;;;3.60;3.30;;;19.70;99.90;;;;;;4997405;28;20171;-62
2023/06/10 05:01:59;;;;;;;4.40;3.10;;;19.80;99.90;;;;;;4997542;28;20466;-63
2023/06/10 05:04:24;;;;;;;4.47;4.00;;;19.70;99.90;;;;;;4996898;28;20210;-63
2023/06/10 05:06:50;;;;;;;3.97;3.67;;;19.60;99.90;;;;;;4997077;28;20190;-63
2023/06/10 05:09:15;;;;;;;3.50;3.20;;;19.50;99.90;;;;;;4997149;28;20172;-63
2023/06/10 05:11:41;;;;;;;3.80;3.50;;;19.50;99.90;;;;;;4997319;28;20179;-63
2023/06/10 05:14:07;;;;;;;4.17;3.60;;;19.50;99.90;;;;;;4996623;28;20175;-63
2023/06/10 05:16:32;;;;;;;3.97;3.17;;;19.50;99.90;;;;;;4997116;28;20207;-63
2023/06/10 05:18:58;;;;;;;3.13;2.83;;;19.60;99.90;;;;;;4997012;28;20176;-63
2023/06/10 05:21:23;;;;;;;2.97;2.67;;;19.60;99.90;;;;;;4996691;28;20210;-63
2023/06/10 05:23:49;;;;;;;3.77;3.47;;;19.70;99.90;;;;;;4996743;28;20262;-63
2023/06/10 05:26:15;;;;;;;2.63;2.43;;;19.70;99.90;;;;;;4996876;28;20195;-63
2023/06/10 05:28:41;;;;;;;3.73;3.30;;;19.70;99.90;;;;;;4995726;28;20168;-62
2023/06/10 05:31:07;;;;;;;3.17;2.80;;;19.80;99.90;;;;;;4996685;28;20422;-63
2023/06/10 05:33:32;;;;;;;3.87;3.50;;;19.90;99.90;;;;;;4996403;28;20765;-63
2023/06/10 05:35:58;;;;;;;2.90;2.70;;;20.10;99.90;;;;;;4996436;28;20203;-66
2023/06/10 05:38:23;;;;;;;2.63;2.43;;;20.50;99.90;;;;;;4996496;28;20179;-63
2023/06/10 05:40:49;;;;;;;2.43;2.33;;;21.10;99.90;;;;;;4996714;28;20207;-63
2023/06/10 05:43:16;;;;;;;2.57;2.47;;;21.60;99.90;;;;;;4996332;28;20630;-63
2023/06/10 05:45:42;;;;;;;2.53;2.37;;;21.70;99.90;;;;;;4996550;28;20283;-63
2023/06/10 05:48:07;;;;;;;2.27;2.13;;;21.70;99.90;;;;;;4995429;28;20500;-62
2023/06/10 05:50:38;;;;;;;2.67;2.30;;;21.70;99.60;;;;;;4996564;28;20183;-62
2023/06/10 05:53:04;;;;;;;3.07;2.87;;;21.60;99.70;;;;;;4996593;28;20299;-62
2023/06/10 05:55:29;;;;;;;3.37;2.70;;;21.60;99.20;;;;;;4996074;28;20957;-62
2023/06/10 05:58:00;;;;;;;2.90;2.57;;;21.40;99.50;;;;;;4996418;28;20487;-62
2023/06/10 06:00:26;;;;;;;2.53;2.40;;;21.30;99.90;;;;;;4996295;28;20198;-62
2023/06/10 06:02:52;;;;;;;3.20;2.33;;;21.10;99.90;;;;;;4996309;28;20793;-62
2023/06/10 06:05:18;;;;;;;2.30;2.10;;;21.10;99.90;;;;;;4995770;28;20489;-62
2023/06/10 06:07:43;;;;;;;2.87;2.67;;;21.10;99.90;;;;;;4996249;28;20442;-62
2023/06/10 06:10:09;;;;;;;2.53;2.33;;;21.30;99.90;;;;;;4996546;28;20180;-62
2023/06/10 06:12:35;;;;;;;2.70;2.50;;;21.30;99.90;;;;;;4996031;28;20249;-62
2023/06/10 06:15:00;;;;;;;2.27;2.17;;;21.30;99.90;;;;;;4995527;28;20431;-62
2023/06/10 06:17:26;;;;;;;2.90;2.70;;;21.20;99.90;;;;;;4995818;28;20276;-62
2023/06/10 06:19:51;;;;;;;2.87;2.30;;;21.20;99.90;;;;;;4995540;28;20175;-63
2023/06/10 06:22:21;;;;;;;2.07;1.93;;;21.30;99.90;;;;;;4995501;28;20610;-62
2023/06/10 06:24:46;;;;;;;2.37;2.17;;;21.30;99.90;;;;;;4995342;28;20196;-62
2023/06/10 06:27:12;;;;;;;2.87;2.67;;;21.30;99.90;;;;;;4995801;28;20422;-62
2023/06/10 06:29:38;;;;;;;2.60;2.40;;;21.40;99.90;;;;;;4995751;28;20186;-62
2023/06/10 06:32:04;;;;;;;2.33;2.13;;;21.50;99.90;;;;;;4995473;28;20175;-63
2023/06/10 06:34:29;;;;;;;2.00;1.90;;;21.70;99.90;;;;;;4995261;28;20319;-62
2023/06/10 06:36:55;;;;;;;2.97;2.67;;;21.80;99.90;;;;;;4995727;28;20757;-62
2023/06/10 06:39:20;;;;;;;2.90;2.70;;;21.80;99.90;;;;;;4995621;28;20179;-62
2023/06/10 06:41:46;;;;;;;3.20;3.00;;;21.80;99.90;;;;;;4995374;28;20665;-62
2023/06/10 06:44:11;;;;;;;3.20;2.90;;;21.80;99.90;;;;;;4995252;28;20196;-62
2023/06/10 06:46:37;;;;;;;3.33;3.03;;;21.90;99.90;;;;;;4995414;28;20172;-63
2023/06/10 06:49:03;;;;;;;2.57;2.37;;;21.90;99.90;;;;;;4995160;28;20573;-63
2023/06/10 06:51:28;;;;;;;2.10;2.00;;;21.90;99.90;;;;;;4995013;28;20258;-62
2023/06/10 06:53:56;;;;;;;2.60;2.40;;;22.00;99.90;;;;;;4994972;28;20177;-62
2023/06/10 06:56:22;;;;;;;3.53;3.23;;;22.10;99.90;;;;;;4995295;28;20179;-63
2023/06/10 06:58:48;;;;;;;2.17;1.97;;;22.20;99.90;;;;;;4994873;28;20558;-63
2023/06/10 07:01:13;;;;;;;2.77;2.57;;;22.30;99.90;;;;;;4995178;28;20230;-63
2023/06/10 07:03:41;;;;;;;2.67;2.47;;;22.40;99.90;;;;;;4994986;28;20224;-62
2023/06/10 07:06:06;;;;;;;2.50;2.10;;;22.60;99.90;;;;;;4994921;28;20959;-63
2023/06/10 07:08:32;;;;;;;2.60;2.40;;;22.80;99.90;;;;;;4994884;28;20468;-63
2023/06/10 07:10:57;;;;;;;2.70;2.60;;;22.80;99.40;;;;;;4994876;28;20187;-62
2023/06/10 07:13:23;;;;;;;3.30;2.50;;;22.90;99.60;;;;;;4994639;28;20320;-63
2023/06/10 07:15:49;;;;;;;2.80;2.60;;;23.00;98.90;;;;;;4994639;28;20276;-63
2023/06/10 07:18:16;;;;;;;2.43;2.33;;;23.20;99.10;;;;;;4995055;28;20183;-63
2023/06/10 07:20:41;;;;;;;2.37;2.17;;;23.30;98.50;;;;;;4994704;28;20876;-62
2023/06/10 07:23:07;;;;;;;2.40;2.20;;;23.50;98.50;;;;;;4994472;28;20411;-63
2023/06/10 07:25:32;;;;;;;2.13;2.03;;;23.80;98.40;;;;;;4994492;28;20196;-63
2023/06/10 07:27:58;;;;;;;2.80;2.40;;;24.20;97.60;;;;;;4994716;28;20188;-63
2023/06/10 07:30:23;;;;;;;2.73;2.53;;;24.80;97.20;;;;;;4994611;28;20206;-63
2023/06/10 07:32:51;;;;;;;3.43;3.13;;;25.40;96.60;;;;;;4994764;28;20178;-63
2023/06/10 07:35:16;;;;;;;2.83;2.43;;;26.00;95.40;;;;;;4993994;28;20203;-63
2023/06/10 07:37:42;;;;;;;2.63;2.43;;;26.70;94.50;;;;;;4994571;28;20488;-62
2023/06/10 07:40:08;;;;;;;2.27;2.10;;;27.40;92.10;;;;;;4994413;28;20184;-63
2023/06/10 07:42:36;;;;;;;3.67;3.37;;;28.40;91.40;;;;;;4994363;28;20231;-63
2023/06/10 07:45:03;;;;;;;2.77;2.57;;;29.10;90.00;;;;;;4993787;28;20937;-63
2023/06/10 07:47:29;;;;;;;3.53;3.33;;;30.00;87.10;;;;;;4994175;28;20879;-63
2023/06/10 07:49:55;;;;;;;3.10;2.90;;;31.30;84.30;;;;;;4994168;28;20887;-63
2023/06/10 07:52:20;;;;;;;2.47;2.37;;;32.50;80.90;;;;;;4994314;28;20388;-63
2023/06/10 07:54:46;;;;;;;3.60;3.10;;;33.20;76.60;;;;;;4993900;28;20270;-63
2023/06/10 07:57:12;;;;;;;3.47;3.17;;;34.10;72.90;;;;;;4994361;28;20178;-63
2023/06/10 07:59:38;;;;;;;3.30;3.10;;;34.50;68.70;;;;;;4994296;28;20202;-63
2023/06/10 08:02:04;;;;;;;3.97;3.67;;;34.70;69.10;;;;;;4993953;28;20204;-63
2023/06/10 08:04:30;;;;;;;3.73;3.50;;;35.10;67.10;;;;;;4993404;28;20409;-63
2023/06/10 08:06:56;;;;;;;3.77;3.47;;;35.80;64.70;;;;;;4993893;28;20460;-63
2023/06/10 08:09:23;;;;;;;3.67;3.40;;;36.20;63.70;;;;;;4993834;28;20917;-64
2023/06/10 08:11:49;;;;;;;3.50;3.20;;;36.20;62.90;;;;;;4994026;28;20215;-63
2023/06/10 08:14:16;;;;;;;3.20;3.00;;;36.30;62.30;;;;;;4993565;28;20492;-63
2023/06/10 08:16:42;;;;;;;3.20;3.00;;;36.40;61.60;;;;;;4994196;28;20438;-63
2023/06/10 08:19:09;;;;;;;2.90;2.70;;;36.20;60.60;;;;;;4993943;28;20887;-69
2023/06/10 08:21:36;;;;;;;3.13;2.93;;;36.40;59.60;;;;;;4994031;28;20803;-63
2023/06/10 08:24:02;;;;;;;3.30;3.10;;;36.40;59.50;;;;;;4993701;28;20418;-63
2023/06/10 08:26:28;;;;;;;3.20;3.00;;;36.30;59.30;;;;;;4993898;28;20407;-63
2023/06/10 08:28:55;;;;;;;3.40;3.20;;;36.30;58.60;;;;;;4993815;28;20423;-64
2023/06/10 08:31:21;;;;;;;3.43;3.23;;;36.40;59.10;;;;;;4992913;28;20180;-69
2023/06/10 08:33:46;;;;;;;3.70;3.40;;;36.80;58.70;;;;;;4993567;28;20501;-63
2023/06/10 08:36:12;;;;;;;3.97;3.73;;;37.00;57.70;;;;;;4993885;28;20203;-63
2023/06/10 08:38:38;;;;;;;3.30;3.10;;;37.20;57.10;;;;;;4994013;28;20180;-63
2023/06/10 08:41:05;;;;;;;3.00;2.80;;;37.30;57.50;;;;;;4993873;28;20665;-63
2023/06/10 08:43:39;;;;;;;3.50;3.30;;;37.30;56.50;;;;;;4993525;28;20538;-62
2023/06/10 08:46:08;;;;;;;3.00;2.80;;;37.10;56.90;;;;;;4993680;28;20517;-63
2023/06/10 08:48:34;;;;;;;3.80;3.60;;;37.20;56.40;;;;;;4993668;28;20510;-62
2023/06/10 08:51:03;;;;;;;3.40;3.20;;;37.20;56.30;;;;;;4993824;28;20506;-63
2023/06/10 08:53:31;;;;;;;3.40;3.20;;;37.20;56.60;;;;;;4993545;28;20424;-63
2023/06/10 08:56:00;;;;;;;4.13;3.83;;;37.30;56.20;;;;;;4993480;28;20948;-63
2023/06/10 08:58:27;;;;;;;3.10;2.90;;;37.50;55.50;;;;;;4993680;28;20476;-63
2023/06/10 09:00:53;;;;;;;3.47;3.27;;;37.60;55.50;;;;;;4993703;28;20809;-63
2023/06/10 09:03:20;;;;;;;3.47;3.27;;;37.80;55.20;;;;;;4993253;28;20399;-63
2023/06/10 09:05:45;;;;;;;3.77;3.57;;;37.40;54.80;;;;;;4993346;28;20454;-62
2023/06/10 09:08:11;;;;;;;3.67;3.37;;;37.20;55.20;;;;;;4993764;28;20414;-62
2023/06/10 09:10:37;;;;;;;3.20;3.00;;;36.70;55.30;;;;;;4993468;28;20202;-62
2023/06/10 09:13:03;;;;;;;3.40;3.20;;;36.50;56.00;;;;;;4993491;28;20180;-62
2023/06/10 09:15:28;;;;;;;3.53;3.30;;;36.50;56.60;;;;;;4993119;28;20437;-62
2023/06/10 09:17:54;;;;;;;3.97;3.67;;;36.50;56.00;;;;;;4993588;28;20515;-62
2023/06/10 09:20:20;;;;;;;3.30;3.10;;;36.50;56.30;;;;;;4993577;28;20755;-63
2023/06/10 09:22:46;;;;;;;4.93;3.53;;;36.70;55.70;;;;;;4995414;28;20172;-63
2023/06/10 09:25:13;;;;;;;3.17;2.97;;;37.00;55.20;;;;;;4995269;28;20598;-63
2023/06/10 09:27:50;;;;;;;4.00;3.70;;;37.20;55.30;;;;;;4997074;28;20164;-62
2023/06/10 09:30:26;;;;;;;3.47;3.27;;;37.40;54.70;;;;;;4996887;28;20749;-62
2023/06/10 09:32:56;;;;;;;3.47;3.20;;;37.20;54.70;;;;;;4996904;28;20995;-63
2023/06/10 09:35:23;;;;;;;3.90;3.70;;;36.50;55.20;;;;;;4996302;28;20852;-62
2023/06/10 09:37:53;;;;;;;3.53;3.33;;;36.10;56.10;;;;;;4996917;28;20451;-63
2023/06/10 09:40:19;;;;;;;3.30;3.10;;;36.40;55.80;;;;;;4996697;28;20458;-62
2023/06/10 09:42:45;;;;;;;3.57;3.37;;;36.70;56.80;;;;;;4996527;28;20498;-62
2023/06/10 09:45:10;;;;;;;3.93;3.73;;;36.50;55.70;;;;;;4996327;28;20203;-63
2023/06/10 09:47:36;;;;;;;3.70;3.50;;;36.00;55.20;;;;;;4996351;28;20262;-62
2023/06/10 09:50:02;;;;;;;3.97;3.77;;;36.30;55.80;;;;;;4996640;28;20168;-62
2023/06/10 09:52:29;;;;;;;3.60;3.40;;;36.70;54.90;;;;;;4996340;28;20716;-62
2023/06/10 09:55:00;;;;;;;3.77;3.57;;;37.20;54.30;;;;;;4996181;28;20445;-62
2023/06/10 09:57:26;;;;;;;3.47;3.27;;;37.70;53.30;;;;;;4996539;28;20813;-62
2023/06/10 09:59:55;;;;;;;4.13;3.93;;;38.20;52.40;;;;;;4996572;28;20407;-63
2023/06/10 10:02:21;;;;;;;3.83;3.10;;;37.90;52.30;;;;;;4996343;28;20570;-62
2023/06/10 10:04:47;;;;;;;3.20;3.00;;;37.70;53.00;;;;;;4995639;28;20427;-63
2023/06/10 10:07:13;;;;;;;3.57;3.37;;;37.60;52.60;;;;;;4994732;28;20274;-62
2023/06/10 10:09:40;;;;;;;3.60;3.40;;;37.90;53.10;;;;;;4996157;28;20274;-62
2023/06/10 10:12:14;;;;;;;3.60;3.40;;;38.00;53.10;;;;;;4996492;28;20410;-62
2023/06/10 10:14:45;;;;;;;3.10;2.90;;;37.90;52.50;;;;;;4995808;28;20434;-63
2023/06/10 10:17:13;;;;;;;4.40;4.10;;;38.00;52.10;;;;;;4996135;28;20490;-62
2023/06/10 10:20:03;;;;;;;3.33;3.13;;;37.70;51.50;;;;;;4995895;28;20431;-63
2023/06/10 10:22:39;;;;;;;4.07;3.63;;;37.30;52.30;;;;;;4990891;28;20429;-63
2023/06/10 10:25:11;;;;;;;3.10;2.90;;;36.90;52.90;;;;;;4995640;28;20443;-62
2023/06/10 10:27:44;;;;;;;3.50;3.20;;;36.70;53.30;;;;;;4995950;28;20406;-63
2023/06/10 10:30:11;;;;;;;3.30;3.10;;;36.50;53.10;;;;;;4995977;28;20397;-63
2023/06/10 10:33:09;;;;;;;3.20;3.00;;;36.60;53.50;;;;;;4995252;28;20444;-63
2023/06/10 10:35:36;;;;;;;3.97;3.67;;;36.30;52.90;;;;;;4960658;28;20437;-63
2023/06/10 10:38:03;;;;;;;4.20;3.90;;;35.90;53.60;;;;;;4995737;28;20398;-63
2023/06/10 10:40:29;;;;;;;4.20;3.97;;;35.40;54.00;;;;;;4995716;28;20545;-63
2023/06/10 10:42:56;;;;;;;4.30;4.00;;;34.70;55.90;;;;;;4995665;28;20815;-63
2023/06/10 10:45:22;;;;;;;3.63;3.33;;;34.30;55.90;;;;;;4995261;28;20744;-62
2023/06/10 10:47:53;;;;;;;3.37;3.17;;;33.30;57.50;;;;;;4995550;28;20415;-63
2023/06/10 10:50:20;;;;;;;4.03;3.73;;;32.50;58.30;;;;;;4995541;28;20190;-63
2023/06/10 10:53:03;;;;;;;3.50;3.20;;;31.80;59.50;;;;;;4995313;28;20394;-62
2023/06/10 10:55:28;;;;;;;3.60;3.40;;;31.10;60.30;;;;;;4994951;28;20398;-62
2023/06/10 10:58:06;;;;;;;3.77;3.33;;;30.60;62.00;;;;;;4995371;28;20510;-63
2023/06/10 11:00:37;;;;;;;4.47;4.07;;;30.60;61.90;;;;;;4995410;28;20195;-62
2023/06/10 11:03:02;;;;;;;4.10;3.87;;;30.50;61.70;;;;;;4995334;28;20406;-61
2023/06/10 11:05:36;;;;;;;3.83;3.53;;;30.80;62.30;;;;;;4994715;28;20421;-62
2023/06/10 11:08:02;;;;;;;3.47;3.27;;;31.20;61.10;;;;;;4995095;28;20560;-62
2023/06/10 11:10:35;;;;;;;3.70;3.40;;;31.50;61.10;;;;;;4994983;28;20419;-62
2023/06/10 11:13:14;;;;;;;3.73;3.47;;;31.70;60.20;;;;;;4994941;28;20519;-62
2023/06/10 11:15:50;;;;;;;4.40;3.97;;;31.50;60.50;;;;;;4994729;28;20405;-62
2023/06/10 11:18:39;;;;;;;3.20;3.00;;;31.10;60.70;;;;;;4993357;28;20401;-63
2023/06/10 11:21:05;;;;;;;3.70;3.40;;;30.60;61.60;;;;;;4994044;28;20429;-62
2023/06/10 11:23:33;;;;;;;3.70;3.40;;;30.30;63.90;;;;;;4993892;28;20380;-63
2023/06/10 11:26:31;;;;;;;4.23;3.90;;;30.10;63.80;;;;;;4994420;28;20463;-62
2023/06/10 11:28:57;;;;;;;3.20;2.97;;;29.90;62.10;;;;;;4994792;28;20409;-62
2023/06/10 11:31:36;;;;;;;5.30;3.27;;;29.80;63.40;;;;;;4994817;28;20377;-63
2023/06/10 11:34:04;;;;;;;4.10;3.70;;;29.70;62.90;;;;;;4994022;28;20211;-63
2023/06/10 11:36:31;;;;;;;3.20;3.00;;;29.60;63.20;;;;;;4994712;28;20410;-62
2023/06/10 11:38:58;;;;;;;3.83;3.63;;;29.50;63.30;;;;;;4994628;28;20518;-62
2023/06/10 11:41:28;;;;;;;2.90;2.70;;;29.20;63.80;;;;;;4992631;28;20461;-62
2023/06/10 11:43:58;;;;;;;3.07;2.87;;;29.10;65.00;;;;;;4993836;28;20411;-63
2023/06/10 11:46:27;;;;;;;2.90;2.70;;;29.00;65.20;;;;;;4994088;28;20744;-62
2023/06/10 11:49:03;;;;;;;3.43;3.23;;;28.90;65.50;;;;;;4994501;28;20403;-62
2023/06/10 11:51:32;;;;;;;3.40;3.20;;;28.90;65.10;;;;;;4993296;28;20408;-62
2023/06/10 11:53:57;;;;;;;8.00;3.20;;;28.80;66.60;;;;;;4994696;28;20910;-62
2023/06/10 11:56:27;;;;;;;2.90;2.80;;;28.80;66.50;;;;;;4994100;28;20445;-62
2023/06/10 11:58:55;;;;;;;3.00;2.70;;;28.90;65.70;;;;;;4993797;28;20182;-62
2023/06/10 12:01:22;;;;;;;3.07;2.87;;;28.90;66.50;;;;;;4993974;28;20455;-62
2023/06/10 12:03:48;;;;;;;3.47;3.10;;;28.90;65.00;;;;;;4993219;28;20487;-63
2023/06/10 12:06:13;;;;;;;3.23;2.93;;;29.00;64.90;;;;;;4993733;28;20428;-62
2023/06/10 12:08:43;;;;;;;3.20;3.00;;;29.00;63.30;;;;;;5004674;28;20711;-63
2023/06/10 12:11:09;;;;;;;2.70;2.50;;;29.00;65.40;;;;;;5013521;28;20175;-62
2023/06/10 12:13:34;;;;;;;3.23;3.03;;;28.90;65.40;;;;;;5012842;28;20484;-62
2023/06/10 12:16:08;;;;;;;3.87;3.37;;;28.80;64.20;;;;;;5013121;28;20437;-63
2023/06/10 12:18:33;;;;;;;2.93;2.73;;;28.70;64.70;;;;;;5012846;28;20248;-62
2023/06/10 12:20:59;;;;;;;2.57;2.47;;;28.60;64.60;;;;;;5013269;28;20432;-62
2023/06/10 12:23:25;;;;;;;2.90;2.70;;;28.50;64.50;;;;;;4998702;28;20190;-62
2023/06/10 12:25:55;;;;;;;2.90;2.70;;;28.40;65.90;;;;;;4993615;28;20215;-62
2023/06/10 12:28:24;;;;;;;3.23;3.03;;;28.50;64.70;;;;;;4993380;28;20537;-62
2023/06/10 12:30:50;;;;;;;3.17;2.97;;;28.50;65.30;;;;;;4993401;28;20722;-63
2023/06/10 12:33:20;;;;;;;3.10;2.90;;;28.70;64.50;;;;;;4993459;28;20421;-63
2023/06/10 12:35:50;;;;;;;4.23;2.60;;;28.90;64.20;;;;;;4993787;28;20931;-62
2023/06/10 12:38:24;;;;;;;3.10;2.90;;;28.80;64.10;;;;;;5008144;28;20419;-62
2023/06/10 12:40:51;;;;;;;3.60;3.30;;;28.70;63.50;;;;;;5013405;28;20445;-63
2023/06/10 12:43:23;;;;;;;2.90;2.70;;;28.40;64.80;;;;;;4996558;28;20429;-62
2023/06/10 12:45:49;;;;;;;2.87;2.67;;;28.20;65.50;;;;;;4974344;28;20436;-62
2023/06/10 12:48:23;;;;;;;2.60;2.40;;;28.00;66.00;;;;;;4978239;28;20399;-62
2023/06/10 12:50:53;;;;;;;3.20;2.90;;;27.80;68.40;;;;;;4982032;28;20778;-62
2023/06/10 12:53:20;;;;;;;2.97;2.77;;;27.80;66.80;;;;;;4986118;28;20426;-63
2023/06/10 12:55:47;;;;;;;3.70;3.17;;;27.80;67.60;;;;;;4988202;28;20452;-62
2023/06/10 12:58:13;;;;;;;2.63;2.43;;;28.00;65.60;;;;;;4992746;28;20419;-63
2023/06/10 13:00:39;;;;;;;3.60;3.30;;;28.20;64.90;;;;;;4977960;28;20577;-63
2023/06/10 13:03:07;;;;;;;3.83;3.53;;;28.30;64.40;;;;;;4978112;28;20426;-63
2023/06/10 13:05:35;;;;;;;2.90;2.70;;;28.50;64.50;;;;;;4978729;28;20508;-63
2023/06/10 13:08:01;;;;;;;2.93;2.50;;;28.70;64.40;;;;;;4993736;28;20402;-63
2023/06/10 13:10:27;;;;;;;3.27;2.97;;;28.90;65.00;;;;;;4977849;28;20446;-63
2023/06/10 13:12:54;;;;;;;2.50;2.30;;;29.00;63.80;;;;;;4977974;28;20213;-62
2023/06/10 13:15:20;;;;;;;2.90;2.70;;;28.90;63.10;;;;;;4977409;28;20493;-63
2023/06/10 13:17:50;;;;;;;2.30;2.10;;;28.70;64.00;;;;;;4977910;28;20971;-62
2023/06/10 13:20:16;;;;;;;2.63;2.40;;;28.40;64.10;;;;;;4979929;28;20191;-63
2023/06/10 13:22:42;;;;;;;3.70;2.90;;;28.10;64.30;;;;;;5011617;28;20395;-62
2023/06/10 13:25:08;;;;;;;3.20;3.00;;;27.80;65.70;;;;;;4995756;28;20438;-63
2023/06/10 13:27:34;;;;;;;2.63;2.43;;;27.60;65.80;;;;;;4997072;28;20440;-62
2023/06/10 13:30:00;;;;;;;3.03;2.73;;;27.50;66.60;;;;;;4997055;28;20458;-63
2023/06/10 13:32:26;;;;;;;4.53;2.50;;;27.40;65.40;;;;;;4997040;28;20415;-63
2023/06/10 13:34:53;;;;;;;2.87;2.67;;;27.40;67.50;;;;;;4996284;28;20462;-63
2023/06/10 13:37:19;;;;;;;2.60;2.40;;;27.60;66.50;;;;;;4996604;28;20190;-63
2023/06/10 13:39:48;;;;;;;2.70;2.50;;;27.90;66.60;;;;;;4988937;28;20413;-62
2023/06/10 13:42:14;;;;;;;2.47;2.27;;;28.20;65.50;;;;;;4992035;28;20456;-62
2023/06/10 13:44:39;;;;;;;2.40;2.30;;;28.40;65.00;;;;;;4996257;28;20428;-62
2023/06/10 13:47:06;;;;;;;3.23;3.03;;;28.50;64.30;;;;;;4988520;28;21117;-63
2023/06/10 13:49:32;;;;;;;2.80;2.60;;;28.40;65.40;;;;;;4977279;28;20191;-62
2023/06/10 13:51:57;;;;;;;2.70;2.50;;;28.30;65.20;;;;;;5005354;28;20751;-62
2023/06/10 13:54:23;;;;;;;3.37;3.03;;;28.40;65.60;;;;;;5015665;28;20201;-63
2023/06/10 13:56:49;;;;;;;2.93;2.73;;;28.50;64.80;;;;;;5015602;28;20510;-63
2023/06/10 13:59:14;;;;;;;3.03;2.70;;;28.50;65.40;;;;;;4989926;28;20584;-62
2023/06/10 14:01:40;;;;;;;2.90;2.70;;;28.50;63.70;;;;;;4986899;28;20205;-63
2023/06/10 14:04:06;;;;;;;2.87;2.67;;;28.40;63.80;;;;;;4994404;28;20175;-62
2023/06/10 14:06:33;;;;;;;3.13;2.93;;;28.20;65.20;;;;;;5008247;28;20419;-63
2023/06/10 14:09:02;;;;;;;2.70;2.50;;;28.20;66.30;;;;;;5002196;28;20419;-63
2023/06/10 14:11:28;;;;;;;2.80;2.60;;;28.30;66.40;;;;;;4988153;28;20437;-62
2023/06/10 14:13:56;;;;;;;3.37;3.07;;;28.40;66.10;;;;;;4995307;28;20793;-62
2023/06/10 14:16:21;;;;;;;3.10;2.60;;;28.60;66.10;;;;;;4995768;28;20183;-62
2023/06/10 14:18:47;;;;;;;3.10;2.90;;;28.80;66.50;;;;;;4995460;28;20429;-61
2023/06/10 14:21:13;;;;;;;3.50;3.20;;;28.90;66.60;;;;;;5015170;28;20198;-62
2023/06/10 14:23:38;;;;;;;2.93;2.63;;;28.90;65.50;;;;;;4986912;28;20187;-63
2023/06/10 14:26:06;;;;;;;3.20;2.90;;;28.70;65.60;;;;;;5015423;28;20196;-63
2023/06/10 14:28:31;;;;;;;3.13;2.93;;;28.70;64.50;;;;;;5015189;28;20540;-62
2023/06/10 14:30:57;;;;;;;3.10;2.90;;;28.50;65.30;;;;;;5015323;28;20507;-62
2023/06/10 14:33:23;;;;;;;3.33;2.87;;;28.50;65.80;;;;;;4992948;28;20184;-63
2023/06/10 14:35:48;;;;;;;2.60;2.43;;;28.50;66.20;;;;;;4994693;28;20460;-61
2023/06/10 14:38:14;;;;;;;3.07;2.87;;;28.50;65.00;;;;;;4995143;28;20174;-62
2023/06/10 14:40:40;;;;;;;4.33;2.73;;;28.50;65.90;;;;;;4995291;28;20198;-61
2023/06/10 14:43:09;;;;;;;3.40;3.20;;;28.40;66.20;;;;;;5010515;28;20214;-63
2023/06/10 14:45:39;;;;;;;3.90;3.60;;;28.40;66.70;;;;;;4990675;28;20193;-62
2023/06/10 14:48:06;;;;;;;3.10;2.90;;;28.30;66.60;;;;;;4975843;28;20430;-62
2023/06/10 14:50:34;;;;;;;3.40;3.20;;;28.30;67.80;;;;;;4975787;28;20410;-61
2023/06/10 14:53:00;;;;;;;3.27;3.07;;;28.30;69.10;;;;;;4981466;28;20487;-63
2023/06/10 14:55:25;;;;;;;3.90;3.60;;;28.20;67.80;;;;;;5006438;28;20583;-67
2023/06/10 14:57:51;;;;;;;3.87;3.57;;;28.10;68.00;;;;;;5014687;28;20280;-65
2023/06/10 15:00:22;;;;;;;2.70;2.57;;;28.20;67.80;;;;;;5004767;28;20194;-66
2023/06/10 15:02:47;;;;;;;3.33;3.00;;;28.20;68.20;;;;;;4975526;28;20171;-64
2023/06/10 15:05:15;;;;;;;3.13;2.93;;;28.20;66.40;;;;;;4982770;28;20426;-64
2023/06/10 15:07:40;;;;;;;3.60;3.30;;;28.10;66.40;;;;;;4982571;28;20512;-64
2023/06/10 15:10:06;;;;;;;2.90;2.70;;;28.00;66.10;;;;;;4994740;28;20503;-63
2023/06/10 15:12:32;;;;;;;3.60;3.30;;;27.90;65.90;;;;;;4995029;28;20313;-64
2023/06/10 15:14:58;;;;;;;3.63;3.33;;;27.90;65.90;;;;;;4988386;28;21040;-63
2023/06/10 15:17:23;;;;;;;3.07;2.87;;;27.90;66.00;;;;;;4975004;28;20185;-64
2023/06/10 15:19:49;;;;;;;3.23;2.97;;;27.90;66.60;;;;;;4974915;28;20286;-65
2023/06/10 15:22:14;;;;;;;3.40;3.20;;;28.00;66.60;;;;;;4974773;28;20215;-64
2023/06/10 15:24:40;;;;;;;3.43;3.13;;;28.10;66.30;;;;;;4997264;28;20648;-63
2023/06/10 15:27:06;;;;;;;3.10;2.90;;;28.20;66.00;;;;;;4983075;28;20178;-64
2023/06/10 15:29:32;;;;;;;2.80;2.60;;;28.20;66.10;;;;;;4975124;28;20174;-63
2023/06/10 15:31:57;;;;;;;2.27;2.17;;;28.20;65.30;;;;;;4975890;28;20904;-62
2023/06/10 15:34:23;;;;;;;2.73;2.53;;;28.10;64.70;;;;;;4989197;28;20207;-63
2023/06/10 15:36:48;;;;;;;2.27;2.07;;;27.90;64.50;;;;;;4994008;28;20279;-65
2023/06/10 15:39:14;;;;;;;2.63;2.47;;;27.80;64.90;;;;;;5004094;28;20172;-66
2023/06/10 15:41:40;;;;;;;2.47;2.27;;;27.70;65.80;;;;;;4996055;28;20199;-67
2023/06/10 15:44:05;;;;;;;2.50;2.30;;;27.60;66.30;;;;;;4992855;28;20530;-67
2023/06/10 15:46:31;;;;;;;2.80;2.60;;;27.60;66.60;;;;;;4994776;28;20185;-67
2023/06/10 15:48:57;;;;;;;2.50;2.30;;;27.60;66.50;;;;;;4994384;28;20180;-66
2023/06/10 15:51:23;;;;;;;2.67;2.47;;;27.60;66.40;;;;;;4986916;28;20238;-67
2023/06/10 15:53:50;;;;;;;2.77;2.57;;;27.60;67.90;;;;;;5000156;28;20465;-65
2023/06/10 15:56:15;;;;;;;2.63;2.43;;;27.60;68.50;;;;;;5013941;28;20668;-67
2023/06/10 15:58:41;;;;;;;2.80;2.60;;;27.60;68.20;;;;;;5003137;28;20428;-66
2023/06/10 16:01:08;;;;;;;3.27;2.13;;;27.50;68.00;;;;;;4993946;28;20207;-66
2023/06/10 16:03:34;;;;;;;2.60;2.40;;;27.50;68.90;;;;;;4992556;28;20176;-68
2023/06/10 16:06:00;;;;;;;2.80;2.60;;;27.50;69.10;;;;;;4974338;28;20463;-67
2023/06/10 16:08:25;;;;;;;2.80;2.60;;;27.60;69.00;;;;;;4974143;28;20220;-68
2023/06/10 16:10:51;;;;;;;2.40;2.30;;;27.60;69.50;;;;;;4977599;28;20239;-68
2023/06/10 16:13:17;;;;;;;2.07;1.97;;;27.60;67.80;;;;;;4996938;28;20190;-67
2023/06/10 16:15:42;;;;;;;2.10;1.90;;;27.70;65.80;;;;;;5013768;28;20222;-67
2023/06/10 16:18:08;;;;;;;2.63;2.47;;;27.70;65.00;;;;;;5003245;28;20184;-67
2023/06/10 16:20:34;;;;;;;2.73;2.43;;;27.60;65.40;;;;;;4986514;28;20200;-67
2023/06/10 16:23:04;;;;;;;2.37;2.27;;;27.60;66.40;;;;;;4973492;28;20229;-69
2023/06/10 16:25:31;;;;;;;2.30;2.10;;;27.50;67.90;;;;;;4973292;28;20429;-70
2023/06/10 16:27:57;;;;;;;2.63;2.43;;;27.50;67.60;;;;;;4981850;28;20422;-66
2023/06/10 16:30:23;;;;;;;2.37;2.27;;;27.50;68.20;;;;;;5013655;28;20387;-63
2023/06/10 16:32:49;;;;;;;2.33;2.13;;;27.60;67.90;;;;;;5011182;28;20199;-65
2023/06/10 16:35:14;;;;;;;2.47;2.30;;;27.60;68.10;;;;;;4995281;28;20466;-63
2023/06/10 16:37:40;;;;;;;2.30;2.10;;;27.50;68.40;;;;;;4997876;28;20194;-63
2023/06/10 16:40:06;;;;;;;2.70;2.50;;;27.60;67.80;;;;;;4997373;28;20634;-64
2023/06/10 16:42:32;;;;;;;2.23;2.03;;;27.60;67.70;;;;;;4999953;28;20203;-63
2023/06/10 16:44:58;;;;;;;3.13;2.90;;;27.70;67.80;;;;;;5017011;28;20424;-62
2023/06/10 16:47:24;;;;;;;2.50;2.30;;;27.70;68.30;;;;;;5003756;28;20181;-63
2023/06/10 16:49:50;;;;;;;1.93;1.80;;;27.80;67.60;;;;;;4988420;28;20190;-66
2023/06/10 16:52:15;;;;;;;2.90;2.70;;;27.80;67.10;;;;;;4996976;28;20811;-64